Portada
METAR-TAF:

METAR-TAF

Aeroports :

Aeroport Internacional de Djerba

Gerba, Tunísia

latitud: 33-52N, longitud: 010-46E, altitud: 3 m

Observació

L'informe es va fer fa 27 minuts, a les 09:30 UTC
Vent 11 kt del Nord/Nord-Est, variant entre Nord i Nord-Est
Temperatura 28°C
Humitat 55%
Pressió 1021 hPa
Visibilitat 10 km o més
Escasses núvols a una alçada de 2000 ft

METAR: DTTJ 250930Z 02011KT 350V050 9999 FEW020 28/18 Q1021 NOSIG

Hora: 10:57 (09:57 UTC)

Pronòstic

L'informe es va fer fa 4 hores i 57 minuts, a les 05:00 UTC
Pronòstic vàlid del 25 a les 06 UTC al 26 a les 06 UTC
Vent 10 kt del Nord/Nord-Est
Visibilitat 10 km o més
Escasses núvols a una alçada de 2000 ft
Probabilitat 30%
l' 26 a les 00 UTC al 26 a les 06 UTC
Vent 20 kt del Nord amb ràfegues de 30 kt
Escasses núvols a una alçada de 3000 ft, Cumulonimbus.
tempesta, pluja

TAF: DTTJ 250500Z 2506/2606 02010KT 9999 FEW020 PROB30 2600/2606 01020G30KT TS RA FEW030CB

Observacions i pronòstics meteorològics de més de 4000 aeroports (METAR i TAF).

Les estacions disponibles són els punts grocs i vermells al mapa.

Posi el ratolí al punt desitjat per veure el nom de l'estació.

Feu clic per veure les observacions i els pronòstics meteorològics.

Per canviar el mapa: feu clic els botons verds amb una creu de color negre per apropar; al botó verd amb un guió per allunyar la imatge; o en les fletxes verdes per a mapes adjacents.


METAR-TAF: